sensor_id;sensor_type;location;lat;lon;timestamp;P1;durP1;ratioP1;P2;durP2;ratioP2
15567;SDS011;7885;42.596;23.044;2022-10-16T00:01:16;14.87;;;10.77;;
15567;SDS011;7885;42.596;23.044;2022-10-16T00:03:44;19.07;;;12.87;;
15567;SDS011;7885;42.596;23.044;2022-10-16T00:06:12;24.73;;;15.00;;
15567;SDS011;7885;42.596;23.044;2022-10-16T00:08:40;21.13;;;13.80;;
15567;SDS011;7885;42.596;23.044;2022-10-16T00:11:08;19.60;;;13.13;;
15567;SDS011;7885;42.596;23.044;2022-10-16T00:13:36;21.47;;;14.23;;
15567;SDS011;7885;42.596;23.044;2022-10-16T00:16:04;21.43;;;14.07;;
15567;SDS011;7885;42.596;23.044;2022-10-16T00:18:33;24.77;;;16.40;;
15567;SDS011;7885;42.596;23.044;2022-10-16T00:21:02;14.23;;;10.73;;
15567;SDS011;7885;42.596;23.044;2022-10-16T00:23:29;17.97;;;11.27;;
15567;SDS011;7885;42.596;23.044;2022-10-16T00:25:57;10.40;;;8.73;;
15567;SDS011;7885;42.596;23.044;2022-10-16T00:28:24;14.83;;;11.00;;
15567;SDS011;7885;42.596;23.044;2022-10-16T00:30:51;18.03;;;13.47;;
15567;SDS011;7885;42.596;23.044;2022-10-16T00:33:18;28.97;;;20.27;;
15567;SDS011;7885;42.596;23.044;2022-10-16T00:35:47;34.30;;;23.37;;
15567;SDS011;7885;42.596;23.044;2022-10-16T00:38:15;22.03;;;16.67;;
15567;SDS011;7885;42.596;23.044;2022-10-16T00:40:42;23.33;;;16.07;;
15567;SDS011;7885;42.596;23.044;2022-10-16T00:43:12;12.63;;;9.73;;
15567;SDS011;7885;42.596;23.044;2022-10-16T00:45:40;14.23;;;11.30;;
15567;SDS011;7885;42.596;23.044;2022-10-16T00:48:08;19.60;;;13.00;;
15567;SDS011;7885;42.596;23.044;2022-10-16T00:50:39;24.03;;;14.07;;
15567;SDS011;7885;42.596;23.044;2022-10-16T00:53:10;13.10;;;10.37;;
15567;SDS011;7885;42.596;23.044;2022-10-16T00:55:38;13.83;;;10.83;;
15567;SDS011;7885;42.596;23.044;2022-10-16T00:58:05;21.17;;;14.23;;
15567;SDS011;7885;42.596;23.044;2022-10-16T01:00:32;23.93;;;15.63;;
15567;SDS011;7885;42.596;23.044;2022-10-16T01:02:59;21.93;;;15.10;;
15567;SDS011;7885;42.596;23.044;2022-10-16T01:05:28;21.83;;;13.30;;
15567;SDS011;7885;42.596;23.044;2022-10-16T01:08:04;18.77;;;14.10;;
15567;SDS011;7885;42.596;23.044;2022-10-16T01:10:40;18.10;;;13.07;;
15567;SDS011;7885;42.596;23.044;2022-10-16T01:13:15;15.03;;;12.47;;
15567;SDS011;7885;42.596;23.044;2022-10-16T01:15:48;21.10;;;12.30;;
15567;SDS011;7885;42.596;23.044;2022-10-16T01:18:24;25.17;;;14.23;;
15567;SDS011;7885;42.596;23.044;2022-10-16T01:20:58;22.10;;;13.47;;
15567;SDS011;7885;42.596;23.044;2022-10-16T01:23:34;24.73;;;12.40;;
15567;SDS011;7885;42.596;23.044;2022-10-16T01:26:20;25.40;;;16.17;;
15567;SDS011;7885;42.596;23.044;2022-10-16T01:28:57;20.77;;;12.83;;
15567;SDS011;7885;42.596;23.044;2022-10-16T01:31:30;23.50;;;16.97;;
15567;SDS011;7885;42.596;23.044;2022-10-16T01:34:03;22.00;;;14.37;;
15567;SDS011;7885;42.596;23.044;2022-10-16T01:36:35;25.00;;;14.70;;
15567;SDS011;7885;42.596;23.044;2022-10-16T01:39:03;19.40;;;12.63;;
15567;SDS011;7885;42.596;23.044;2022-10-16T01:41:33;18.73;;;12.73;;
15567;SDS011;7885;42.596;23.044;2022-10-16T01:44:04;19.73;;;13.23;;
15567;SDS011;7885;42.596;23.044;2022-10-16T01:46:35;19.30;;;12.43;;
15567;SDS011;7885;42.596;23.044;2022-10-16T01:49:04;19.00;;;12.53;;
15567;SDS011;7885;42.596;23.044;2022-10-16T01:51:32;13.53;;;10.50;;
15567;SDS011;7885;42.596;23.044;2022-10-16T01:54:01;16.93;;;12.00;;
15567;SDS011;7885;42.596;23.044;2022-10-16T01:56:30;17.10;;;12.27;;
15567;SDS011;7885;42.596;23.044;2022-10-16T01:58:58;18.97;;;11.97;;
15567;SDS011;7885;42.596;23.044;2022-10-16T02:01:30;18.73;;;12.87;;
15567;SDS011;7885;42.596;23.044;2022-10-16T02:04:01;20.73;;;13.30;;
15567;SDS011;7885;42.596;23.044;2022-10-16T02:06:31;19.47;;;13.73;;
15567;SDS011;7885;42.596;23.044;2022-10-16T02:08:59;17.23;;;12.63;;
15567;SDS011;7885;42.596;23.044;2022-10-16T02:11:26;20.30;;;13.13;;
15567;SDS011;7885;42.596;23.044;2022-10-16T02:13:54;18.77;;;11.60;;
15567;SDS011;7885;42.596;23.044;2022-10-16T02:16:32;17.30;;;11.93;;
15567;SDS011;7885;42.596;23.044;2022-10-16T02:19:01;19.60;;;12.57;;
15567;SDS011;7885;42.596;23.044;2022-10-16T02:21:29;21.17;;;12.07;;
15567;SDS011;7885;42.596;23.044;2022-10-16T02:24:04;23.13;;;12.67;;
15567;SDS011;7885;42.596;23.044;2022-10-16T02:29:59;21.07;;;13.50;;
15567;SDS011;7885;42.596;23.044;2022-10-16T02:32:34;20.30;;;13.17;;
15567;SDS011;7885;42.596;23.044;2022-10-16T02:35:05;14.23;;;10.53;;
15567;SDS011;7885;42.596;23.044;2022-10-16T02:37:33;18.00;;;11.93;;
15567;SDS011;7885;42.596;23.044;2022-10-16T02:40:00;19.10;;;13.20;;
15567;SDS011;7885;42.596;23.044;2022-10-16T02:42:29;20.87;;;12.47;;
15567;SDS011;7885;42.596;23.044;2022-10-16T02:44:59;20.30;;;12.47;;
15567;SDS011;7885;42.596;23.044;2022-10-16T02:47:26;21.73;;;13.13;;
15567;SDS011;7885;42.596;23.044;2022-10-16T02:49:54;20.63;;;12.80;;
15567;SDS011;7885;42.596;23.044;2022-10-16T02:52:20;25.07;;;12.57;;
15567;SDS011;7885;42.596;23.044;2022-10-16T02:54:47;19.50;;;12.10;;
15567;SDS011;7885;42.596;23.044;2022-10-16T02:57:14;15.60;;;11.73;;
15567;SDS011;7885;42.596;23.044;2022-10-16T02:59:41;20.93;;;12.83;;
15567;SDS011;7885;42.596;23.044;2022-10-16T03:02:08;23.00;;;13.33;;
15567;SDS011;7885;42.596;23.044;2022-10-16T03:04:35;22.03;;;12.77;;
15567;SDS011;7885;42.596;23.044;2022-10-16T03:07:03;21.13;;;12.07;;
15567;SDS011;7885;42.596;23.044;2022-10-16T03:09:30;19.37;;;15.13;;
15567;SDS011;7885;42.596;23.044;2022-10-16T03:11:57;20.63;;;10.70;;
15567;SDS011;7885;42.596;23.044;2022-10-16T03:14:23;22.50;;;14.17;;
15567;SDS011;7885;42.596;23.044;2022-10-16T03:16:50;22.07;;;12.83;;
15567;SDS011;7885;42.596;23.044;2022-10-16T03:19:17;22.73;;;12.20;;
15567;SDS011;7885;42.596;23.044;2022-10-16T03:21:44;21.97;;;13.23;;
15567;SDS011;7885;42.596;23.044;2022-10-16T03:24:12;21.97;;;12.13;;
15567;SDS011;7885;42.596;23.044;2022-10-16T03:26:39;21.17;;;11.50;;
15567;SDS011;7885;42.596;23.044;2022-10-16T03:29:06;16.63;;;10.23;;
15567;SDS011;7885;42.596;23.044;2022-10-16T03:31:33;18.17;;;11.63;;
15567;SDS011;7885;42.596;23.044;2022-10-16T03:33:59;22.77;;;13.03;;
15567;SDS011;7885;42.596;23.044;2022-10-16T03:36:26;21.67;;;11.73;;
15567;SDS011;7885;42.596;23.044;2022-10-16T03:38:53;19.37;;;11.80;;
15567;SDS011;7885;42.596;23.044;2022-10-16T03:41:21;23.47;;;12.23;;
15567;SDS011;7885;42.596;23.044;2022-10-16T03:43:48;29.57;;;12.53;;
15567;SDS011;7885;42.596;23.044;2022-10-16T03:46:15;40.00;;;14.17;;
15567;SDS011;7885;42.596;23.044;2022-10-16T03:48:41;25.33;;;15.53;;
15567;SDS011;7885;42.596;23.044;2022-10-16T03:51:08;27.27;;;15.47;;
15567;SDS011;7885;42.596;23.044;2022-10-16T03:53:35;27.97;;;15.23;;
15567;SDS011;7885;42.596;23.044;2022-10-16T03:56:02;24.67;;;13.40;;
15567;SDS011;7885;42.596;23.044;2022-10-16T03:58:30;29.33;;;14.10;;
15567;SDS011;7885;42.596;23.044;2022-10-16T04:00:56;26.07;;;13.53;;
15567;SDS011;7885;42.596;23.044;2022-10-16T04:03:23;25.43;;;15.60;;
15567;SDS011;7885;42.596;23.044;2022-10-16T04:05:50;28.07;;;16.63;;
15567;SDS011;7885;42.596;23.044;2022-10-16T04:08:17;20.37;;;12.87;;
15567;SDS011;7885;42.596;23.044;2022-10-16T04:10:44;22.43;;;13.13;;
15567;SDS011;7885;42.596;23.044;2022-10-16T04:13:11;22.10;;;15.13;;
15567;SDS011;7885;42.596;23.044;2022-10-16T04:15:40;26.50;;;16.40;;
15567;SDS011;7885;42.596;23.044;2022-10-16T04:18:06;34.93;;;23.10;;
15567;SDS011;7885;42.596;23.044;2022-10-16T04:20:33;31.57;;;20.90;;
15567;SDS011;7885;42.596;23.044;2022-10-16T04:23:00;31.63;;;18.70;;
15567;SDS011;7885;42.596;23.044;2022-10-16T04:25:27;34.67;;;25.17;;
15567;SDS011;7885;42.596;23.044;2022-10-16T04:27:54;22.67;;;15.60;;
15567;SDS011;7885;42.596;23.044;2022-10-16T04:30:21;22.83;;;16.47;;
15567;SDS011;7885;42.596;23.044;2022-10-16T04:32:50;24.33;;;14.73;;
15567;SDS011;7885;42.596;23.044;2022-10-16T04:35:17;27.33;;;18.97;;
15567;SDS011;7885;42.596;23.044;2022-10-16T04:37:45;24.57;;;15.77;;
15567;SDS011;7885;42.596;23.044;2022-10-16T04:40:12;23.20;;;14.77;;
15567;SDS011;7885;42.596;23.044;2022-10-16T04:42:39;23.43;;;15.10;;
15567;SDS011;7885;42.596;23.044;2022-10-16T04:45:06;22.33;;;14.47;;
15567;SDS011;7885;42.596;23.044;2022-10-16T04:47:33;17.47;;;15.57;;
15567;SDS011;7885;42.596;23.044;2022-10-16T04:50:02;19.50;;;14.47;;
15567;SDS011;7885;42.596;23.044;2022-10-16T04:52:29;17.13;;;13.50;;
15567;SDS011;7885;42.596;23.044;2022-10-16T04:54:56;19.00;;;13.57;;
15567;SDS011;7885;42.596;23.044;2022-10-16T04:57:26;15.73;;;12.37;;
15567;SDS011;7885;42.596;23.044;2022-10-16T04:59:53;17.77;;;12.57;;
15567;SDS011;7885;42.596;23.044;2022-10-16T05:02:20;17.23;;;12.83;;
15567;SDS011;7885;42.596;23.044;2022-10-16T05:04:47;19.37;;;14.40;;
15567;SDS011;7885;42.596;23.044;2022-10-16T05:07:15;18.97;;;12.93;;
15567;SDS011;7885;42.596;23.044;2022-10-16T05:09:41;18.20;;;13.60;;
15567;SDS011;7885;42.596;23.044;2022-10-16T05:12:08;21.93;;;16.60;;
15567;SDS011;7885;42.596;23.044;2022-10-16T05:14:35;25.37;;;21.17;;
15567;SDS011;7885;42.596;23.044;2022-10-16T05:17:02;29.03;;;21.33;;
15567;SDS011;7885;42.596;23.044;2022-10-16T05:19:28;32.00;;;26.73;;
15567;SDS011;7885;42.596;23.044;2022-10-16T05:21:55;28.33;;;19.57;;
15567;SDS011;7885;42.596;23.044;2022-10-16T05:24:23;21.47;;;16.67;;
15567;SDS011;7885;42.596;23.044;2022-10-16T05:26:50;23.93;;;18.70;;
15567;SDS011;7885;42.596;23.044;2022-10-16T05:29:17;27.50;;;17.97;;
15567;SDS011;7885;42.596;23.044;2022-10-16T05:31:44;21.53;;;17.93;;
15567;SDS011;7885;42.596;23.044;2022-10-16T05:34:10;39.60;;;25.20;;
15567;SDS011;7885;42.596;23.044;2022-10-16T05:36:37;34.93;;;23.03;;
15567;SDS011;7885;42.596;23.044;2022-10-16T05:39:04;28.57;;;20.07;;
15567;SDS011;7885;42.596;23.044;2022-10-16T05:41:32;33.10;;;22.40;;
15567;SDS011;7885;42.596;23.044;2022-10-16T05:43:59;34.33;;;24.80;;
15567;SDS011;7885;42.596;23.044;2022-10-16T05:46:26;39.63;;;23.73;;
15567;SDS011;7885;42.596;23.044;2022-10-16T05:48:53;31.43;;;20.93;;
15567;SDS011;7885;42.596;23.044;2022-10-16T05:51:19;26.67;;;17.20;;
15567;SDS011;7885;42.596;23.044;2022-10-16T05:53:46;20.77;;;15.67;;
15567;SDS011;7885;42.596;23.044;2022-10-16T05:56:13;28.40;;;16.17;;
15567;SDS011;7885;42.596;23.044;2022-10-16T05:58:42;23.43;;;16.17;;
15567;SDS011;7885;42.596;23.044;2022-10-16T06:01:10;25.83;;;16.10;;
15567;SDS011;7885;42.596;23.044;2022-10-16T06:03:38;21.47;;;16.93;;
15567;SDS011;7885;42.596;23.044;2022-10-16T06:06:08;25.60;;;15.70;;
15567;SDS011;7885;42.596;23.044;2022-10-16T06:08:39;23.90;;;14.80;;
15567;SDS011;7885;42.596;23.044;2022-10-16T06:11:06;20.27;;;14.33;;
15567;SDS011;7885;42.596;23.044;2022-10-16T06:13:35;21.00;;;13.33;;
15567;SDS011;7885;42.596;23.044;2022-10-16T06:16:03;18.23;;;13.57;;
15567;SDS011;7885;42.596;23.044;2022-10-16T06:18:33;20.50;;;12.40;;
15567;SDS011;7885;42.596;23.044;2022-10-16T06:21:06;24.50;;;16.67;;
15567;SDS011;7885;42.596;23.044;2022-10-16T06:23:34;29.23;;;18.47;;
15567;SDS011;7885;42.596;23.044;2022-10-16T06:26:04;27.50;;;13.50;;
15567;SDS011;7885;42.596;23.044;2022-10-16T06:28:32;23.47;;;13.93;;
15567;SDS011;7885;42.596;23.044;2022-10-16T06:30:59;26.70;;;14.23;;
15567;SDS011;7885;42.596;23.044;2022-10-16T06:33:27;28.53;;;17.90;;
15567;SDS011;7885;42.596;23.044;2022-10-16T06:35:59;26.23;;;18.07;;
15567;SDS011;7885;42.596;23.044;2022-10-16T06:38:26;23.97;;;16.37;;
15567;SDS011;7885;42.596;23.044;2022-10-16T06:40:53;25.07;;;15.10;;
15567;SDS011;7885;42.596;23.044;2022-10-16T06:43:20;21.08;;;13.60;;
15567;SDS011;7885;42.596;23.044;2022-10-16T06:45:50;20.55;;;13.07;;
15567;SDS011;7885;42.596;23.044;2022-10-16T06:48:17;20.98;;;13.13;;
15567;SDS011;7885;42.596;23.044;2022-10-16T06:50:45;18.83;;;14.35;;
15567;SDS011;7885;42.596;23.044;2022-10-16T06:53:21;20.77;;;14.00;;
15567;SDS011;7885;42.596;23.044;2022-10-16T06:55:48;20.17;;;15.10;;
15567;SDS011;7885;42.596;23.044;2022-10-16T06:58:27;19.77;;;16.00;;
15567;SDS011;7885;42.596;23.044;2022-10-16T07:00:56;22.80;;;15.57;;
15567;SDS011;7885;42.596;23.044;2022-10-16T07:03:23;17.50;;;14.02;;
15567;SDS011;7885;42.596;23.044;2022-10-16T07:05:51;15.50;;;12.98;;
15567;SDS011;7885;42.596;23.044;2022-10-16T07:08:18;17.73;;;13.25;;
15567;SDS011;7885;42.596;23.044;2022-10-16T07:10:45;14.63;;;13.18;;
15567;SDS011;7885;42.596;23.044;2022-10-16T07:13:11;20.23;;;14.93;;
15567;SDS011;7885;42.596;23.044;2022-10-16T07:15:39;20.55;;;16.23;;
15567;SDS011;7885;42.596;23.044;2022-10-16T07:18:06;15.93;;;12.10;;
15567;SDS011;7885;42.596;23.044;2022-10-16T07:20:33;20.33;;;15.02;;
15567;SDS011;7885;42.596;23.044;2022-10-16T07:23:01;17.45;;;12.93;;
15567;SDS011;7885;42.596;23.044;2022-10-16T07:25:28;15.15;;;11.73;;
15567;SDS011;7885;42.596;23.044;2022-10-16T07:27:54;14.13;;;11.73;;
15567;SDS011;7885;42.596;23.044;2022-10-16T07:30:22;16.85;;;12.68;;
15567;SDS011;7885;42.596;23.044;2022-10-16T07:32:49;13.40;;;11.05;;
15567;SDS011;7885;42.596;23.044;2022-10-16T07:35:15;16.85;;;11.50;;
15567;SDS011;7885;42.596;23.044;2022-10-16T07:37:44;14.70;;;10.82;;
15567;SDS011;7885;42.596;23.044;2022-10-16T07:40:13;14.70;;;10.25;;
15567;SDS011;7885;42.596;23.044;2022-10-16T07:42:39;13.85;;;10.98;;
15567;SDS011;7885;42.596;23.044;2022-10-16T07:45:06;12.02;;;10.65;;
15567;SDS011;7885;42.596;23.044;2022-10-16T07:47:34;15.27;;;10.27;;
15567;SDS011;7885;42.596;23.044;2022-10-16T07:50:01;14.27;;;11.02;;
15567;SDS011;7885;42.596;23.044;2022-10-16T07:52:27;13.18;;;10.18;;
15567;SDS011;7885;42.596;23.044;2022-10-16T07:54:54;12.80;;;10.45;;
15567;SDS011;7885;42.596;23.044;2022-10-16T07:57:22;13.98;;;9.68;;
15567;SDS011;7885;42.596;23.044;2022-10-16T07:59:49;13.98;;;9.68;;
15567;SDS011;7885;42.596;23.044;2022-10-16T08:05:37;13.63;;;9.27;;
15567;SDS011;7885;42.596;23.044;2022-10-16T08:08:04;12.55;;;8.88;;
15567;SDS011;7885;42.596;23.044;2022-10-16T08:10:31;13.00;;;9.98;;
15567;SDS011;7885;42.596;23.044;2022-10-16T08:12:59;11.55;;;9.73;;
15567;SDS011;7885;42.596;23.044;2022-10-16T08:15:26;11.68;;;8.93;;
15567;SDS011;7885;42.596;23.044;2022-10-16T08:17:56;12.38;;;8.38;;
15567;SDS011;7885;42.596;23.044;2022-10-16T08:20:24;11.05;;;7.85;;
15567;SDS011;7885;42.596;23.044;2022-10-16T08:22:51;8.40;;;7.47;;
15567;SDS011;7885;42.596;23.044;2022-10-16T08:25:19;10.35;;;8.50;;
15567;SDS011;7885;42.596;23.044;2022-10-16T08:27:45;11.13;;;8.07;;
15567;SDS011;7885;42.596;23.044;2022-10-16T08:30:14;8.48;;;7.60;;
15567;SDS011;7885;42.596;23.044;2022-10-16T08:32:41;9.13;;;7.50;;
15567;SDS011;7885;42.596;23.044;2022-10-16T08:35:08;11.63;;;8.45;;
15567;SDS011;7885;42.596;23.044;2022-10-16T08:37:36;8.75;;;7.78;;
15567;SDS011;7885;42.596;23.044;2022-10-16T08:40:03;11.10;;;8.02;;
15567;SDS011;7885;42.596;23.044;2022-10-16T08:42:36;9.68;;;8.10;;
15567;SDS011;7885;42.596;23.044;2022-10-16T08:45:18;8.82;;;7.40;;
15567;SDS011;7885;42.596;23.044;2022-10-16T08:47:56;9.40;;;7.50;;
15567;SDS011;7885;42.596;23.044;2022-10-16T08:50:33;11.82;;;7.90;;
15567;SDS011;7885;42.596;23.044;2022-10-16T08:53:04;9.40;;;7.55;;
15567;SDS011;7885;42.596;23.044;2022-10-16T08:55:33;9.05;;;7.80;;
15567;SDS011;7885;42.596;23.044;2022-10-16T08:58:09;10.23;;;7.80;;
15567;SDS011;7885;42.596;23.044;2022-10-16T09:00:39;10.50;;;8.00;;
15567;SDS011;7885;42.596;23.044;2022-10-16T09:03:10;10.20;;;8.02;;
15567;SDS011;7885;42.596;23.044;2022-10-16T09:05:52;10.18;;;8.40;;
15567;SDS011;7885;42.596;23.044;2022-10-16T09:08:34;9.73;;;8.38;;
15567;SDS011;7885;42.596;23.044;2022-10-16T09:11:10;10.13;;;7.82;;
15567;SDS011;7885;42.596;23.044;2022-10-16T09:13:48;13.10;;;8.60;;
15567;SDS011;7885;42.596;23.044;2022-10-16T09:16:24;9.20;;;7.88;;
15567;SDS011;7885;42.596;23.044;2022-10-16T09:18:55;13.05;;;7.97;;
15567;SDS011;7885;42.596;23.044;2022-10-16T09:21:29;12.23;;;7.80;;
15567;SDS011;7885;42.596;23.044;2022-10-16T09:23:58;12.13;;;7.75;;
15567;SDS011;7885;42.596;23.044;2022-10-16T09:26:30;10.63;;;7.13;;
15567;SDS011;7885;42.596;23.044;2022-10-16T09:28:57;9.57;;;8.55;;
15567;SDS011;7885;42.596;23.044;2022-10-16T09:31:25;13.40;;;8.38;;
15567;SDS011;7885;42.596;23.044;2022-10-16T09:33:53;9.90;;;7.60;;
15567;SDS011;7885;42.596;23.044;2022-10-16T09:36:24;9.65;;;8.15;;
15567;SDS011;7885;42.596;23.044;2022-10-16T09:39:01;9.38;;;8.00;;
15567;SDS011;7885;42.596;23.044;2022-10-16T09:41:30;10.35;;;8.00;;
15567;SDS011;7885;42.596;23.044;2022-10-16T09:44:02;10.15;;;7.75;;
15567;SDS011;7885;42.596;23.044;2022-10-16T09:46:33;10.77;;;9.75;;
15567;SDS011;7885;42.596;23.044;2022-10-16T09:49:01;10.95;;;8.15;;
15567;SDS011;7885;42.596;23.044;2022-10-16T09:51:30;12.43;;;8.40;;
15567;SDS011;7885;42.596;23.044;2022-10-16T09:53:59;10.35;;;7.97;;
15567;SDS011;7885;42.596;23.044;2022-10-16T09:56:27;11.13;;;7.78;;
15567;SDS011;7885;42.596;23.044;2022-10-16T09:58:57;12.88;;;7.50;;
15567;SDS011;7885;42.596;23.044;2022-10-16T10:01:28;13.00;;;8.40;;
15567;SDS011;7885;42.596;23.044;2022-10-16T10:03:58;9.00;;;7.72;;
15567;SDS011;7885;42.596;23.044;2022-10-16T10:06:29;11.55;;;7.03;;
15567;SDS011;7885;42.596;23.044;2022-10-16T10:09:02;8.80;;;6.95;;
15567;SDS011;7885;42.596;23.044;2022-10-16T10:11:45;8.15;;;6.57;;
15567;SDS011;7885;42.596;23.044;2022-10-16T10:14:18;8.63;;;4.90;;
15567;SDS011;7885;42.596;23.044;2022-10-16T10:16:48;5.40;;;4.57;;
15567;SDS011;7885;42.596;23.044;2022-10-16T10:19:18;5.32;;;4.93;;
15567;SDS011;7885;42.596;23.044;2022-10-16T10:21:46;6.53;;;4.53;;
15567;SDS011;7885;42.596;23.044;2022-10-16T10:24:14;7.07;;;4.40;;
15567;SDS011;7885;42.596;23.044;2022-10-16T10:26:44;4.55;;;4.10;;
15567;SDS011;7885;42.596;23.044;2022-10-16T10:29:19;4.82;;;4.30;;
15567;SDS011;7885;42.596;23.044;2022-10-16T10:31:56;4.40;;;4.00;;
15567;SDS011;7885;42.596;23.044;2022-10-16T10:34:38;5.38;;;4.68;;
15567;SDS011;7885;42.596;23.044;2022-10-16T10:37:20;3.97;;;3.67;;
15567;SDS011;7885;42.596;23.044;2022-10-16T10:39:57;4.70;;;4.30;;
15567;SDS011;7885;42.596;23.044;2022-10-16T10:42:34;5.35;;;3.92;;
15567;SDS011;7885;42.596;23.044;2022-10-16T10:45:17;5.03;;;3.50;;
15567;SDS011;7885;42.596;23.044;2022-10-16T10:47:51;4.70;;;3.50;;
15567;SDS011;7885;42.596;23.044;2022-10-16T10:50:33;4.28;;;3.88;;
15567;SDS011;7885;42.596;23.044;2022-10-16T10:53:07;3.80;;;3.50;;
15567;SDS011;7885;42.596;23.044;2022-10-16T10:55:43;5.47;;;3.70;;
15567;SDS011;7885;42.596;23.044;2022-10-16T10:58:24;3.33;;;3.03;;
15567;SDS011;7885;42.596;23.044;2022-10-16T11:01:12;5.03;;;3.85;;
15567;SDS011;7885;42.596;23.044;2022-10-16T11:03:42;5.82;;;3.47;;
15567;SDS011;7885;42.596;23.044;2022-10-16T11:06:28;3.83;;;3.53;;
15567;SDS011;7885;42.596;23.044;2022-10-16T11:08:59;4.32;;;3.90;;
15567;SDS011;7885;42.596;23.044;2022-10-16T11:11:35;3.78;;;3.40;;
15567;SDS011;7885;42.596;23.044;2022-10-16T11:14:09;7.22;;;4.40;;
15567;SDS011;7885;42.596;23.044;2022-10-16T11:16:43;3.50;;;3.10;;
15567;SDS011;7885;42.596;23.044;2022-10-16T11:19:18;5.43;;;3.67;;
15567;SDS011;7885;42.596;23.044;2022-10-16T11:21:54;3.92;;;3.10;;
15567;SDS011;7885;42.596;23.044;2022-10-16T11:24:29;3.10;;;2.80;;
15567;SDS011;7885;42.596;23.044;2022-10-16T11:27:08;3.33;;;2.75;;
15567;SDS011;7885;42.596;23.044;2022-10-16T11:29:41;3.10;;;2.85;;
15567;SDS011;7885;42.596;23.044;2022-10-16T11:32:18;3.40;;;3.10;;
15567;SDS011;7885;42.596;23.044;2022-10-16T11:34:50;2.88;;;2.67;;
15567;SDS011;7885;42.596;23.044;2022-10-16T11:37:23;3.95;;;2.65;;
15567;SDS011;7885;42.596;23.044;2022-10-16T11:39:57;3.45;;;2.63;;
15567;SDS011;7885;42.596;23.044;2022-10-16T11:42:32;3.17;;;2.72;;
15567;SDS011;7885;42.596;23.044;2022-10-16T11:45:07;3.42;;;2.80;;
15567;SDS011;7885;42.596;23.044;2022-10-16T11:47:51;2.75;;;2.55;;
15567;SDS011;7885;42.596;23.044;2022-10-16T11:50:28;4.22;;;2.67;;
15567;SDS011;7885;42.596;23.044;2022-10-16T11:53:01;3.10;;;2.80;;
15567;SDS011;7885;42.596;23.044;2022-10-16T11:55:35;3.28;;;2.95;;
15567;SDS011;7885;42.596;23.044;2022-10-16T11:58:05;3.95;;;3.30;;
15567;SDS011;7885;42.596;23.044;2022-10-16T12:04:12;2.80;;;2.60;;
15567;SDS011;7885;42.596;23.044;2022-10-16T12:06:46;5.05;;;2.70;;
15567;SDS011;7885;42.596;23.044;2022-10-16T12:09:21;3.22;;;2.45;;
15567;SDS011;7885;42.596;23.044;2022-10-16T12:11:51;2.65;;;2.22;;
15567;SDS011;7885;42.596;23.044;2022-10-16T12:14:20;4.13;;;2.67;;
15567;SDS011;7885;42.596;23.044;2022-10-16T12:16:58;2.70;;;2.50;;
15567;SDS011;7885;42.596;23.044;2022-10-16T12:19:27;3.00;;;2.70;;
15567;SDS011;7885;42.596;23.044;2022-10-16T12:21:56;7.32;;;2.78;;
15567;SDS011;7885;42.596;23.044;2022-10-16T12:27:21;6.63;;;2.83;;
15567;SDS011;7885;42.596;23.044;2022-10-16T12:29:54;4.55;;;2.70;;
15567;SDS011;7885;42.596;23.044;2022-10-16T12:32:26;4.07;;;2.25;;
15567;SDS011;7885;42.596;23.044;2022-10-16T12:34:56;2.78;;;2.58;;
15567;SDS011;7885;42.596;23.044;2022-10-16T12:37:25;3.35;;;2.35;;
15567;SDS011;7885;42.596;23.044;2022-10-16T12:39:55;4.72;;;2.45;;
15567;SDS011;7885;42.596;23.044;2022-10-16T12:42:32;4.45;;;2.22;;
15567;SDS011;7885;42.596;23.044;2022-10-16T12:45:00;3.10;;;2.90;;
15567;SDS011;7885;42.596;23.044;2022-10-16T12:47:46;4.55;;;2.70;;
15567;SDS011;7885;42.596;23.044;2022-10-16T12:50:23;5.97;;;2.30;;
15567;SDS011;7885;42.596;23.044;2022-10-16T12:53:02;3.13;;;2.25;;
15567;SDS011;7885;42.596;23.044;2022-10-16T12:55:33;2.60;;;2.25;;
15567;SDS011;7885;42.596;23.044;2022-10-16T12:58:21;2.40;;;2.20;;
15567;SDS011;7885;42.596;23.044;2022-10-16T13:01:06;2.50;;;2.30;;
15567;SDS011;7885;42.596;23.044;2022-10-16T13:03:56;2.50;;;2.30;;
15567;SDS011;7885;42.596;23.044;2022-10-16T13:06:42;2.60;;;2.40;;
15567;SDS011;7885;42.596;23.044;2022-10-16T13:09:21;2.90;;;2.53;;
15567;SDS011;7885;42.596;23.044;2022-10-16T13:12:12;3.58;;;2.55;;
15567;SDS011;7885;42.596;23.044;2022-10-16T13:17:42;3.67;;;2.80;;
15567;SDS011;7885;42.596;23.044;2022-10-16T13:20:17;3.28;;;2.50;;
15567;SDS011;7885;42.596;23.044;2022-10-16T13:22:56;2.53;;;2.33;;
15567;SDS011;7885;42.596;23.044;2022-10-16T13:25:35;2.45;;;2.22;;
15567;SDS011;7885;42.596;23.044;2022-10-16T13:28:12;3.72;;;2.53;;
15567;SDS011;7885;42.596;23.044;2022-10-16T13:30:40;3.45;;;2.40;;
15567;SDS011;7885;42.596;23.044;2022-10-16T13:33:12;3.05;;;2.47;;
15567;SDS011;7885;42.596;23.044;2022-10-16T13:35:47;2.83;;;2.60;;
15567;SDS011;7885;42.596;23.044;2022-10-16T13:38:16;2.53;;;2.33;;
15567;SDS011;7885;42.596;23.044;2022-10-16T13:40:48;2.95;;;2.65;;
15567;SDS011;7885;42.596;23.044;2022-10-16T13:43:18;3.78;;;2.90;;
15567;SDS011;7885;42.596;23.044;2022-10-16T13:45:55;2.95;;;2.20;;
15567;SDS011;7885;42.596;23.044;2022-10-16T13:48:23;3.90;;;2.38;;
15567;SDS011;7885;42.596;23.044;2022-10-16T13:51:01;3.77;;;3.33;;
15567;SDS011;7885;42.596;23.044;2022-10-16T13:53:30;3.60;;;2.70;;
15567;SDS011;7885;42.596;23.044;2022-10-16T13:56:00;6.53;;;2.97;;
15567;SDS011;7885;42.596;23.044;2022-10-16T13:58:30;3.43;;;2.60;;
15567;SDS011;7885;42.596;23.044;2022-10-16T14:00:58;2.60;;;2.40;;
15567;SDS011;7885;42.596;23.044;2022-10-16T14:03:26;9.63;;;6.00;;
15567;SDS011;7885;42.596;23.044;2022-10-16T14:05:55;9.67;;;5.90;;
15567;SDS011;7885;42.596;23.044;2022-10-16T14:08:25;6.05;;;3.33;;
15567;SDS011;7885;42.596;23.044;2022-10-16T14:10:54;4.83;;;3.50;;
15567;SDS011;7885;42.596;23.044;2022-10-16T14:13:25;6.70;;;4.13;;
15567;SDS011;7885;42.596;23.044;2022-10-16T14:15:58;6.00;;;4.27;;
15567;SDS011;7885;42.596;23.044;2022-10-16T14:18:28;4.00;;;3.50;;
15567;SDS011;7885;42.596;23.044;2022-10-16T14:21:02;4.37;;;3.10;;
15567;SDS011;7885;42.596;23.044;2022-10-16T14:23:30;3.13;;;2.50;;
15567;SDS011;7885;42.596;23.044;2022-10-16T14:26:13;3.53;;;3.23;;
15567;SDS011;7885;42.596;23.044;2022-10-16T14:28:43;6.70;;;2.60;;
15567;SDS011;7885;42.596;23.044;2022-10-16T14:31:23;6.27;;;2.80;;
15567;SDS011;7885;42.596;23.044;2022-10-16T14:33:52;7.00;;;2.90;;
15567;SDS011;7885;42.596;23.044;2022-10-16T14:36:20;4.57;;;2.90;;
15567;SDS011;7885;42.596;23.044;2022-10-16T14:38:49;5.00;;;2.70;;
15567;SDS011;7885;42.596;23.044;2022-10-16T14:41:22;2.90;;;2.70;;
15567;SDS011;7885;42.596;23.044;2022-10-16T14:43:51;4.50;;;2.83;;
15567;SDS011;7885;42.596;23.044;2022-10-16T14:46:21;4.27;;;2.80;;
15567;SDS011;7885;42.596;23.044;2022-10-16T14:48:55;3.70;;;2.70;;
15567;SDS011;7885;42.596;23.044;2022-10-16T14:51:26;4.37;;;2.80;;
15567;SDS011;7885;42.596;23.044;2022-10-16T14:53:53;4.57;;;3.20;;
15567;SDS011;7885;42.596;23.044;2022-10-16T14:56:20;3.40;;;3.10;;
15567;SDS011;7885;42.596;23.044;2022-10-16T14:58:50;5.40;;;2.83;;
15567;SDS011;7885;42.596;23.044;2022-10-16T15:01:18;5.00;;;2.97;;
15567;SDS011;7885;42.596;23.044;2022-10-16T15:03:45;3.60;;;2.83;;
15567;SDS011;7885;42.596;23.044;2022-10-16T15:06:13;5.93;;;3.00;;
15567;SDS011;7885;42.596;23.044;2022-10-16T15:08:41;5.47;;;2.63;;